Time;durP1;ratioP1;P1;durP2;ratioP2;P2;SDS_P1;SDS_P2;PMS_P1;PMS_P2;Temp;Humidity;BMP_temperature;BMP_pressure;BME280_temperature;BME280_humidity;BME280_pressure;Samples;Min_cycle;Max_cycle;Signal;HPM_P1;HPM_P2
2021/12/14 00:00:37;;;;;;;;;;;8.60;99.90;;;;;;5112040;28;19975;-89
2021/12/14 00:03:05;;;;;;;;;;;8.60;99.90;;;;;;5112542;28;19947;-88
2021/12/14 00:05:31;;;;;;;;;;;8.60;99.90;;;;;;5095130;28;20026;-89
2021/12/14 00:07:57;;;;;;;;;;;8.60;99.90;;;;;;5078674;28;20022;-89
2021/12/14 00:11:13;;;;;;;;;;;8.60;99.90;;;;;;5095109;28;19930;-90
2021/12/14 00:13:24;;;;;;;;;;;8.60;99.90;;;;;;5089769;28;19938;-89
2021/12/14 00:15:50;;;;;;;;;;;8.60;99.90;;;;;;5080075;28;20341;-90
2021/12/14 00:18:21;;;;;;;;;;;8.60;99.90;;;;;;5111896;28;20016;-90
2021/12/14 00:20:54;;;;;;;;;;;8.60;99.90;;;;;;5095507;28;19924;-90
2021/12/14 00:26:19;;;;;;;;;;;;;;;;;;;;;
2021/12/14 00:28:45;;;;;;;;;;;8.50;99.90;;;;;;5096586;28;19924;-90
2021/12/14 00:31:13;;;;;;;;;;;8.60;99.90;;;;;;5094619;28;20261;-90
2021/12/14 00:33:39;;;;;;;;;;;8.60;99.90;;;;;;5078944;28;19978;-90
2021/12/14 00:36:08;;;;;;;;;;;8.50;99.90;;;;;;5095104;28;19937;-89
2021/12/14 00:38:35;;;;;;;;;;;8.50;99.90;;;;;;5111731;28;20335;-89
2021/12/14 00:41:07;;;;;;;;;;;8.50;99.90;;;;;;5095390;28;20294;-89
2021/12/14 00:43:33;;;;;;;;;;;8.50;99.90;;;;;;5081697;28;19930;-90
2021/12/14 00:46:08;;;;;;;;;;;8.50;99.90;;;;;;5082165;28;19983;-89
2021/12/14 00:48:38;;;;;;;;;;;8.50;99.90;;;;;;5098221;28;20406;-90
2021/12/14 00:51:04;;;;;;;;;;;8.50;99.90;;;;;;5099050;28;20037;-89
2021/12/14 00:53:29;;;;;;;;;;;8.50;99.90;;;;;;5098404;28;19992;-89
2021/12/14 00:55:56;;;;;;;;;;;8.50;99.90;;;;;;5081933;28;19923;-90
2021/12/14 00:58:24;;;;;;;;;;;8.50;99.90;;;;;;5098312;28;19923;-89
2021/12/14 01:00:58;;;;;;;;;;;8.60;99.90;;;;;;5115616;28;19930;-89
2021/12/14 01:03:24;;;;;;;;;;;8.50;99.90;;;;;;5081281;28;19989;-89
2021/12/14 01:05:54;;;;;;;;;;;8.50;99.90;;;;;;5082668;28;20267;-89
2021/12/14 01:08:21;;;;;;;;;;;8.50;99.90;;;;;;5081120;28;19924;-90
2021/12/14 01:10:50;;;;;;;;;;;8.60;99.90;;;;;;5098572;28;19982;-89
2021/12/14 01:13:18;;;;;;;;;;;8.60;99.90;;;;;;5098520;28;19924;-89
2021/12/14 01:18:30;;;;;;;;;;;8.50;99.90;;;;;;5098338;28;20018;-89
2021/12/14 01:21:08;;;;;;;;;;;8.50;99.90;;;;;;5100217;28;19924;-89
2021/12/14 01:23:36;;;;;;;;;;;8.40;99.90;;;;;;5082542;28;19934;-89
2021/12/14 01:26:07;;;;;;;;;;;8.50;99.90;;;;;;5114598;28;19931;-89
2021/12/14 01:28:33;;;;;;;;;;;8.50;99.90;;;;;;5081002;28;20034;-90
2021/12/14 01:31:29;;;;;;;;;;;8.50;99.90;;;;;;5081555;28;20460;-88
2021/12/14 01:33:54;;;;;;;;;;;8.40;99.90;;;;;;5099889;28;19969;-89
2021/12/14 01:41:42;;;;;;;;;;;8.50;99.90;;;;;;5097632;28;20366;-89
2021/12/14 01:44:13;;;;;;;;;;;8.50;99.90;;;;;;5097874;28;20022;-89
2021/12/14 01:46:43;;;;;;;;;;;8.50;99.90;;;;;;5097728;28;19924;-89
2021/12/14 01:49:09;;;;;;;;;;;8.50;99.90;;;;;;5114438;28;19924;-89
2021/12/14 01:51:35;;;;;;;;;;;8.50;99.90;;;;;;5097330;28;19931;-89
2021/12/14 01:54:01;;;;;;;;;;;8.50;99.90;;;;;;5097126;28;20395;-89
2021/12/14 01:56:27;;;;;;;;;;;8.50;99.90;;;;;;5080410;28;19994;-89
2021/12/14 01:59:06;;;;;;;;;;;8.50;99.90;;;;;;5080403;28;19928;-90
2021/12/14 02:01:38;;;;;;;;;;;8.50;99.90;;;;;;5097983;28;19927;-89
2021/12/14 02:04:11;;;;;;;;;;;8.50;99.90;;;;;;5081424;28;20073;-90
2021/12/14 02:06:37;;;;;;;;;;;8.50;99.90;;;;;;5080197;28;19961;-90
2021/12/14 02:09:07;;;;;;;;;;;8.50;99.90;;;;;;5097194;28;20371;-89
2021/12/14 02:11:41;;;;;;;;;;;8.50;99.90;;;;;;5080382;28;19931;-89
2021/12/14 02:14:09;;;;;;;;;;;8.50;99.90;;;;;;5097165;28;19931;-90
2021/12/14 02:16:34;;;;;;;;;;;8.50;99.90;;;;;;5096696;28;19981;-90
2021/12/14 02:19:09;;;;;;;;;;;8.50;99.90;;;;;;5096561;28;19993;-90
2021/12/14 02:21:37;;;;;;;;;;;8.50;99.90;;;;;;5080142;28;20321;-90
2021/12/14 02:24:06;;;;;;;;;;;8.50;99.90;;;;;;5097145;28;19923;-90
2021/12/14 02:26:35;;;;;;;;;;;8.50;99.90;;;;;;5096905;28;19924;-90
2021/12/14 02:29:02;;;;;;;;;;;8.60;99.90;;;;;;5080107;28;20014;-89
2021/12/14 02:31:29;;;;;;;;;;;8.50;99.90;;;;;;5079635;28;20286;-88
2021/12/14 02:34:02;;;;;;;;;;;8.50;99.90;;;;;;5113951;28;20022;-89
2021/12/14 02:36:34;;;;;;;;;;;8.50;99.90;;;;;;5097401;28;20342;-90
2021/12/14 02:39:08;;;;;;;;;;;8.50;99.90;;;;;;5079923;28;19924;-90
2021/12/14 02:41:41;;;;;;;;;;;8.50;99.90;;;;;;5096225;28;19928;-90
2021/12/14 02:44:09;;;;;;;;;;;8.50;99.90;;;;;;5079912;28;19972;-90
2021/12/14 02:46:38;;;;;;;;;;;8.50;99.90;;;;;;5113287;28;20333;-90
2021/12/14 02:49:07;;;;;;;;;;;8.50;99.90;;;;;;5096392;28;19981;-89
2021/12/14 02:51:40;;;;;;;;;;;8.50;99.90;;;;;;5096631;28;19971;-90
2021/12/14 02:54:16;;;;;;;;;;;8.50;99.90;;;;;;5080132;28;20330;-90
2021/12/14 02:56:42;;;;;;;;;;;8.50;99.90;;;;;;5059460;28;20019;-89
2021/12/14 02:59:14;;;;;;;;;;;8.50;99.90;;;;;;5075881;28;19931;-89
2021/12/14 03:01:41;;;;;;;;;;;8.50;99.90;;;;;;5059281;28;19924;-90
2021/12/14 03:04:09;;;;;;;;;;;8.50;99.90;;;;;;5059500;28;19949;-90
2021/12/14 03:06:45;;;;;;;;;;;8.50;99.90;;;;;;5058508;28;19924;-90
2021/12/14 03:09:32;;;;;;;;;;;8.40;99.90;;;;;;5060170;28;19970;-90
2021/12/14 03:12:02;;;;;;;;;;;8.40;99.90;;;;;;5061595;28;20429;-90
2021/12/14 03:14:30;;;;;;;;;;;8.40;99.90;;;;;;5076208;28;19949;-89
2021/12/14 03:16:56;;;;;;;;;;;8.40;99.90;;;;;;5075581;28;20385;-89
2021/12/14 03:19:22;;;;;;;;;;;8.40;99.90;;;;;;5075470;28;19967;-89
2021/12/14 03:21:52;;;;;;;;;;;8.40;99.90;;;;;;5058740;28;19934;-90
2021/12/14 03:24:23;;;;;;;;;;;8.40;99.90;;;;;;5075849;28;19938;-90
2021/12/14 03:26:51;;;;;;;;;;;8.40;99.90;;;;;;5058754;28;19924;-89
2021/12/14 03:29:25;;;;;;;;;;;8.40;99.90;;;;;;5059005;28;19924;-90
2021/12/14 03:31:56;;;;;;;;;;;8.40;99.90;;;;;;5074809;28;19939;-90
2021/12/14 03:34:32;;;;;;;;;;;8.40;99.90;;;;;;5075691;28;19924;-89
2021/12/14 03:37:01;;;;;;;;;;;8.40;99.90;;;;;;5058601;28;19978;-90
2021/12/14 03:39:27;;;;;;;;;;;8.40;99.90;;;;;;5092572;28;19924;-89
2021/12/14 03:41:53;;;;;;;;;;;8.40;99.90;;;;;;5058580;28;20439;-90
2021/12/14 03:44:20;;;;;;;;;;;8.40;99.90;;;;;;5075520;28;19975;-90
2021/12/14 03:47:08;;;;;;;;;;;8.40;99.90;;;;;;5058422;28;19932;-90
2021/12/14 03:49:36;;;;;;;;;;;8.40;99.90;;;;;;5092051;28;19967;-91
2021/12/14 03:52:05;;;;;;;;;;;8.40;99.90;;;;;;5057823;28;19924;-90
2021/12/14 03:54:33;;;;;;;;;;;8.40;99.90;;;;;;5061718;28;19924;-90
2021/12/14 03:57:01;;;;;;;;;;;8.40;99.90;;;;;;5078804;28;20246;-90
2021/12/14 03:59:31;;;;;;;;;;;8.40;99.90;;;;;;5095737;28;19928;-89
2021/12/14 04:02:01;;;;;;;;;;;8.40;99.90;;;;;;5078364;28;20398;-90
2021/12/14 04:04:41;;;;;;;;;;;8.40;99.90;;;;;;5095613;28;19947;-90
2021/12/14 04:07:10;;;;;;;;;;;8.40;99.90;;;;;;5112695;28;19931;-90
2021/12/14 04:09:36;;;;;;;;;;;8.40;99.90;;;;;;5078950;28;19923;-90
2021/12/14 04:12:02;;;;;;;;;;;8.40;99.90;;;;;;5078421;28;19927;-88
2021/12/14 04:14:35;;;;;;;;;;;8.40;99.90;;;;;;5078742;28;19924;-90
2021/12/14 04:17:00;;;;;;;;;;;8.40;99.90;;;;;;5080093;28;19924;-90
2021/12/14 04:19:29;;;;;;;;;;;8.40;99.90;;;;;;5082832;28;19923;-90
2021/12/14 04:21:59;;;;;;;;;;;8.40;99.90;;;;;;5116104;28;19924;-89
2021/12/14 04:24:26;;;;;;;;;;;8.40;99.90;;;;;;5099579;28;19931;-90
2021/12/14 04:26:51;;;;;;;;;;;8.40;99.90;;;;;;5098832;28;19924;-89
2021/12/14 04:29:22;;;;;;;;;;;8.40;99.90;;;;;;5099194;28;19930;-90
2021/12/14 04:32:02;;;;;;;;;;;8.40;99.90;;;;;;5081839;28;19975;-90
2021/12/14 04:34:39;;;;;;;;;;;;;;;;;;;;;
2021/12/14 04:37:07;;;;;;;;;;;8.40;99.90;;;;;;5100087;28;19928;-91
2021/12/14 04:39:42;;;;;;;;;;;8.40;99.90;;;;;;5082250;28;20109;-89
2021/12/14 04:53:30;;;;;;;;;;;8.40;99.90;;;;;;5101659;28;19966;-90
2021/12/14 04:56:00;;;;;;;;;;;8.40;99.90;;;;;;5098530;28;19963;-90
2021/12/14 04:58:29;;;;;;;;;;;8.50;99.90;;;;;;5082412;28;20327;-90
2021/12/14 05:00:57;;;;;;;;;;;8.40;99.90;;;;;;5098646;28;19924;-89
2021/12/14 05:03:25;;;;;;;;;;;8.40;99.90;;;;;;5099030;28;20393;-90
2021/12/14 05:06:10;;;;;;;;;;;8.40;99.90;;;;;;5098108;28;19923;-90
2021/12/14 05:11:11;;;;;;;;;;;8.50;99.90;;;;;;5098185;28;19986;-89
2021/12/14 05:13:36;;;;;;;;;;;8.40;99.90;;;;;;5082789;28;20021;-90
2021/12/14 05:16:05;;;;;;;;;;;8.40;99.90;;;;;;5097961;28;19931;-90
2021/12/14 05:18:33;;;;;;;;;;;8.40;99.90;;;;;;5098413;28;20018;-90
2021/12/14 05:21:01;;;;;;;;;;;8.40;99.90;;;;;;5098014;28;20275;-90
2021/12/14 05:23:31;;;;;;;;;;;8.40;99.90;;;;;;5082396;28;20317;-90
2021/12/14 05:26:01;;;;;;;;;;;8.40;99.90;;;;;;5081804;28;19975;-90
2021/12/14 05:28:37;;;;;;;;;;;;;;;;;;;;;
2021/12/14 05:31:03;;;;;;;;;;;8.30;99.90;;;;;;5098693;28;19928;-93
2021/12/14 05:33:34;;;;;;;;;;;8.40;99.90;;;;;;5081407;28;19930;-91
2021/12/14 05:36:01;;;;;;;;;;;8.40;99.90;;;;;;5081132;28;19930;-90
2021/12/14 05:39:23;;;;;;;;;;;8.30;99.90;;;;;;5081188;28;19923;-89
2021/12/14 05:44:03;;;;;;;;;;;8.30;99.90;;;;;;5099963;28;20018;-89
2021/12/14 05:46:28;;;;;;;;;;;8.30;99.90;;;;;;5097822;28;19924;-90
2021/12/14 05:49:00;;;;;;;;;;;8.30;99.90;;;;;;5080174;28;20315;-88
2021/12/14 05:51:31;;;;;;;;;;;8.30;99.90;;;;;;5081522;28;19923;-91
2021/12/14 05:53:59;;;;;;;;;;;8.30;99.90;;;;;;5097916;28;19973;-90
2021/12/14 05:56:27;;;;;;;;;;;8.30;99.90;;;;;;5081287;28;19924;-92
2021/12/14 05:58:56;;;;;;;;;;;8.30;99.90;;;;;;5081142;28;20014;-91
2021/12/14 06:01:26;;;;;;;;;;;8.30;99.90;;;;;;5081262;28;19931;-92
2021/12/14 06:04:12;;;;;;;;;;;8.30;99.90;;;;;;5080822;28;19927;-89
2021/12/14 06:06:41;;;;;;;;;;;8.30;99.90;;;;;;5096533;28;19924;-88
2021/12/14 06:09:12;;;;;;;;;;;8.30;99.90;;;;;;5080158;28;20337;-89
2021/12/14 06:11:43;;;;;;;;;;;8.30;99.90;;;;;;5097404;28;20014;-90
2021/12/14 06:14:16;;;;;;;;;;;8.20;99.90;;;;;;5097323;28;19924;-90
2021/12/14 06:16:49;;;;;;;;;;;8.30;99.90;;;;;;5080505;28;19928;-91
2021/12/14 06:19:36;;;;;;;;;;;8.30;99.90;;;;;;5080792;28;19924;-90
2021/12/14 06:22:08;;;;;;;;;;;8.30;99.90;;;;;;5097885;28;19924;-90
2021/12/14 06:24:43;;;;;;;;;;;8.20;99.90;;;;;;5080833;28;19974;-90
2021/12/14 06:27:12;;;;;;;;;;;8.20;99.90;;;;;;5081324;28;19924;-90
2021/12/14 06:29:45;;;;;;;;;;;8.20;99.90;;;;;;5097764;28;20348;-90
2021/12/14 06:32:16;;;;;;;;;;;8.20;99.90;;;;;;5080742;28;19936;-90
2021/12/14 06:34:55;;;;;;;;;;;8.20;99.90;;;;;;5097303;28;19981;-91
2021/12/14 06:40:07;;;;;;;;;;;8.20;99.90;;;;;;5113924;28;19969;-90
2021/12/14 06:42:36;;;;;;;;;;;8.20;99.90;;;;;;5097985;28;20073;-90
2021/12/14 06:45:06;;;;;;;;;;;8.20;99.90;;;;;;5096332;28;19969;-91
2021/12/14 06:47:45;;;;;;;;;;;8.20;99.90;;;;;;5080382;28;20014;-90
2021/12/14 06:50:12;;;;;;;;;;;8.20;99.90;;;;;;5096052;28;19924;-91
2021/12/14 06:52:53;;;;;;;;;;;8.20;99.90;;;;;;5096769;28;19924;-91
2021/12/14 06:55:23;;;;;;;;;;;8.20;99.90;;;;;;5081252;28;20306;-91
2021/12/14 06:57:53;;;;;;;;;;;8.30;99.90;;;;;;5096969;28;20018;-90
2021/12/14 07:00:19;;;;;;;;;;;8.20;99.90;;;;;;5079758;28;19924;-91
2021/12/14 07:02:48;;;;;;;;;;;8.20;99.90;;;;;;5096643;28;20330;-90
2021/12/14 07:05:26;;;;;;;;;;;8.20;99.90;;;;;;5079164;28;19927;-91
2021/12/14 07:07:51;;;;;;;;;;;8.20;99.90;;;;;;5079251;28;19924;-90
2021/12/14 07:10:20;;;;;;;;;;;8.20;99.90;;;;;;5078560;28;20279;-90
2021/12/14 07:12:45;;;;;;;;;;;8.30;99.90;;;;;;5079308;28;19928;-89
2021/12/14 07:15:23;;;;;;;;;;;8.20;99.90;;;;;;5078900;28;20252;-89
2021/12/14 07:17:54;;;;;;;;;;;8.20;99.90;;;;;;5096001;28;19932;-89
2021/12/14 07:20:24;;;;;;;;;;;8.20;99.90;;;;;;5096133;28;19969;-89
2021/12/14 07:22:57;;;;;;;;;;;8.20;99.90;;;;;;5095945;28;20276;-90
2021/12/14 07:25:38;;;;;;;;;;;8.20;99.90;;;;;;5112447;28;20415;-91
2021/12/14 07:28:15;;;;;;;;;;;8.20;99.90;;;;;;5099844;28;19974;-89
2021/12/14 07:33:41;;;;;;;;;;;8.20;99.90;;;;;;5104883;28;20413;-94
2021/12/14 07:36:08;;;;;;;;;;;8.20;99.90;;;;;;5080048;28;19930;-91
2021/12/14 07:38:35;;;;;;;;;;;8.20;99.90;;;;;;5093075;27;20019;-92
2021/12/14 07:41:21;;;;;;;;;;;8.20;99.90;;;;;;5115751;27;20014;-89
2021/12/14 07:44:05;;;;;;;;;;;8.20;99.90;;;;;;5132584;27;20423;-92
2021/12/14 07:46:31;;;;;;;;;;;8.20;99.90;;;;;;5116036;27;19930;-91
2021/12/14 07:48:58;;;;;;;;;;;8.20;99.90;;;;;;5116276;28;20282;-92
2021/12/14 07:51:24;;;;;;;;;;;8.20;99.90;;;;;;5115487;28;19923;-92
2021/12/14 07:54:10;;;;;;;;;;;8.20;99.90;;;;;;5116272;28;19930;-92
2021/12/14 07:56:40;;;;;;;;;;;8.30;99.90;;;;;;5110483;28;20268;-91
2021/12/14 07:59:25;;;;;;;;;;;8.30;99.90;;;;;;5079516;28;20014;-91
2021/12/14 08:02:07;;;;;;;;;;;8.30;99.90;;;;;;5079175;28;19923;-91
2021/12/14 08:04:34;;;;;;;;;;;8.30;99.90;;;;;;5095615;28;19984;-92
2021/12/14 08:06:59;;;;;;;;;;;8.30;99.90;;;;;;5095268;28;19932;-92
2021/12/14 08:09:33;;;;;;;;;;;8.40;99.90;;;;;;5095009;28;19931;-91
2021/12/14 08:11:59;;;;;;;;;;;8.30;99.90;;;;;;5095904;28;19930;-92
2021/12/14 08:14:26;;;;;;;;;;;8.30;99.90;;;;;;5095455;28;20301;-92
2021/12/14 08:16:52;;;;;;;;;;;8.40;99.90;;;;;;5095889;28;19923;-91
2021/12/14 08:19:26;;;;;;;;;;;8.40;99.90;;;;;;5094773;28;20054;-92
2021/12/14 08:21:51;;;;;;;;;;;8.30;99.90;;;;;;5095556;28;19928;-90
2021/12/14 08:24:22;;;;;;;;;;;8.40;99.90;;;;;;5074866;28;20002;-93
2021/12/14 08:26:55;;;;;;;;;;;8.40;99.90;;;;;;5093111;28;19932;-90
2021/12/14 08:29:37;;;;;;;;;;;8.40;99.90;;;;;;5091407;28;20230;-89
2021/12/14 08:32:07;;;;;;;;;;;8.40;99.90;;;;;;5074541;28;19972;-90
2021/12/14 08:34:37;;;;;;;;;;;8.40;99.90;;;;;;5088912;28;19927;-90
2021/12/14 08:37:26;;;;;;;;;;;;;;;;;;;;;
2021/12/14 08:39:57;;;;;;;;;;;8.40;99.90;;;;;;5095110;28;19932;-89
2021/12/14 08:42:37;;;;;;;;;;;8.40;99.90;;;;;;5093933;28;20387;-89
2021/12/14 08:45:24;;;;;;;;;;;8.50;99.90;;;;;;5111634;28;19942;-89
2021/12/14 08:47:52;;;;;;;;;;;8.50;99.90;;;;;;5097550;28;19919;-89
2021/12/14 08:50:20;;;;;;;;;;;8.50;99.90;;;;;;5077124;28;19942;-89
2021/12/14 08:53:08;;;;;;;;;;;8.50;99.90;;;;;;5095064;28;19920;-89
2021/12/14 08:55:36;;;;;;;;;;;8.50;99.90;;;;;;5104529;28;19924;-89
2021/12/14 08:58:02;;;;;;;;;;;8.50;99.90;;;;;;5091928;28;19991;-88
2021/12/14 09:00:49;;;;;;;;;;;8.50;99.90;;;;;;5072318;28;19992;-88
2021/12/14 09:03:24;;;;;;;;;;;8.50;99.90;;;;;;5077352;28;20299;-87
2021/12/14 09:05:52;;;;;;;;;;;8.50;99.90;;;;;;5095436;28;19959;-89
2021/12/14 09:08:25;;;;;;;;;;;8.50;99.90;;;;;;5089181;28;19985;-88
2021/12/14 09:10:52;;;;;;;;;;;8.50;99.90;;;;;;5083196;28;19924;-88
2021/12/14 09:13:20;;;;;;;;;;;8.50;99.90;;;;;;5077436;27;19955;-88
2021/12/14 09:15:57;;;;;;;;;;;8.60;99.90;;;;;;5078475;28;20403;-88
2021/12/14 09:18:46;;;;;;;;;;;8.50;99.90;;;;;;5088131;28;19932;-88
2021/12/14 09:21:16;;;;;;;;;;;8.60;99.90;;;;;;5097723;28;19969;-88
2021/12/14 09:23:46;;;;;;;;;;;8.50;99.90;;;;;;5080443;28;19967;-88
2021/12/14 09:26:35;;;;;;;;;;;8.60;99.90;;;;;;5091034;28;19923;-88
2021/12/14 09:29:05;;;;;;;;;;;8.60;99.90;;;;;;5094612;28;19931;-88
2021/12/14 09:31:40;;;;;;;;;;;8.60;99.90;;;;;;5077732;27;19955;-87
2021/12/14 09:34:09;;;;;;;;;;;8.60;99.90;;;;;;5086919;27;19946;-87
2021/12/14 09:36:44;;;;;;;;;;;;;;;;;;;;;
2021/12/14 09:39:21;;;;;;;;;;;8.60;99.90;;;;;;5098368;28;20294;-90
2021/12/14 09:41:57;;;;;;;;;;;;;;;;;;;;;
2021/12/14 09:44:35;;;;;;;;;;;8.70;99.90;;;;;;5099243;28;19934;-89
2021/12/14 09:47:12;;;;;;;;;;;;;;;;;;;;;
2021/12/14 09:49:48;;;;;;;;;;;8.70;99.90;;;;;;5100298;27;19928;-91
2021/12/14 09:52:25;;;;;;;;;;;8.60;99.90;;;;;;5113832;27;19930;-91
2021/12/14 09:54:54;;;;;;;;;;;8.70;99.90;;;;;;5111248;27;19965;-90
2021/12/14 09:57:23;;;;;;;;;;;8.70;99.90;;;;;;5083839;28;20314;-90
2021/12/14 09:59:49;;;;;;;;;;;8.70;99.90;;;;;;5099847;27;19962;-89
2021/12/14 10:02:35;;;;;;;;;;;8.70;99.90;;;;;;5090018;28;19970;-88
2021/12/14 10:05:14;;;;;;;;;;;;;;;;;;;;;
2021/12/14 10:07:53;;;;;;;;;;;8.70;99.90;;;;;;5093695;28;19924;-90
2021/12/14 10:10:29;;;;;;;;;;;8.70;99.90;;;;;;5095897;27;19972;-91
2021/12/14 10:13:12;;;;;;;;;;;8.70;99.90;;;;;;5079445;28;20368;-91
2021/12/14 10:15:52;;;;;;;;;;;8.70;99.90;;;;;;5094509;28;19923;-91
2021/12/14 10:18:49;;;;;;;;;;;8.80;99.90;;;;;;5080322;28;20368;-90
2021/12/14 10:21:17;;;;;;;;;;;8.80;99.90;;;;;;5110269;27;19931;-89
2021/12/14 10:23:45;;;;;;;;;;;8.80;99.90;;;;;;5105376;27;19927;-87
2021/12/14 10:26:14;;;;;;;;;;;8.80;99.90;;;;;;5094262;28;19923;-92
2021/12/14 10:28:45;;;;;;;;;;;8.80;99.90;;;;;;5085451;28;19982;-91
2021/12/14 10:31:38;;;;;;;;;;;8.80;99.90;;;;;;5079816;28;19924;-91
2021/12/14 10:34:06;;;;;;;;;;;8.80;99.90;;;;;;5084936;28;20003;-92
2021/12/14 10:36:47;;;;;;;;;;;8.80;99.90;;;;;;5078991;28;19924;-91
2021/12/14 10:39:37;;;;;;;;;;;8.80;99.90;;;;;;5081619;28;19924;-93
2021/12/14 10:45:36;;;;;;;;;;;8.80;99.90;;;;;;5113960;28;19930;-92
2021/12/14 10:48:12;;;;;;;;;;;8.90;99.90;;;;;;5079461;28;19924;-90
2021/12/14 10:50:55;;;;;;;;;;;8.80;99.90;;;;;;5078909;28;19938;-92
2021/12/14 10:53:26;;;;;;;;;;;8.80;99.90;;;;;;5097585;27;19923;-93
2021/12/14 10:56:14;;;;;;;;;;;8.80;99.90;;;;;;5097019;28;19947;-89
2021/12/14 10:58:49;;;;;;;;;;;8.80;99.90;;;;;;5077119;28;19972;-91
2021/12/14 11:01:27;;;;;;;;;;;8.90;99.90;;;;;;5087799;28;19935;-90
2021/12/14 11:04:04;;;;;;;;;;;8.80;99.90;;;;;;5094031;28;19970;-89
2021/12/14 11:06:33;;;;;;;;;;;8.80;99.90;;;;;;5078736;28;20015;-89
2021/12/14 11:12:22;;;;;;;;;;;8.90;99.90;;;;;;5092270;28;20567;-90
2021/12/14 11:14:48;;;;;;;;;;;8.90;99.90;;;;;;5083778;28;19930;-89
2021/12/14 11:20:15;;;;;;;;;;;9.00;99.90;;;;;;5097865;28;19939;-89
2021/12/14 11:22:52;;;;;;;;;;;9.00;99.90;;;;;;5078740;28;19934;-89
2021/12/14 11:25:21;;;;;;;;;;;9.00;99.90;;;;;;5095399;28;19930;-90
2021/12/14 11:28:07;;;;;;;;;;;9.00;99.90;;;;;;5078524;28;19934;-88
2021/12/14 11:30:38;;;;;;;;;;;9.00;99.90;;;;;;5078483;28;20260;-88
2021/12/14 11:33:29;;;;;;;;;;;9.10;99.90;;;;;;5093926;28;20016;-86
2021/12/14 11:36:20;;;;;;;;;;;9.10;99.90;;;;;;5108071;28;20013;-88
2021/12/14 11:38:56;;;;;;;;;;;9.10;99.90;;;;;;5071524;28;19936;-91
2021/12/14 11:41:22;;;;;;;;;;;9.10;99.90;;;;;;5075472;28;19976;-89
2021/12/14 11:44:19;;;;;;;;;;;9.10;99.90;;;;;;5110799;28;19927;-90
2021/12/14 11:47:04;;;;;;;;;;;9.10;99.90;;;;;;5100093;27;20284;-89
2021/12/14 11:49:56;;;;;;;;;;;9.00;99.90;;;;;;5107268;28;19946;-90
2021/12/14 11:52:33;;;;;;;;;;;9.10;99.90;;;;;;5119058;27;20416;-89
2021/12/14 11:55:20;;;;;;;;;;;9.00;99.90;;;;;;5087399;28;19931;-91
2021/12/14 11:57:48;;;;;;;;;;;9.10;99.90;;;;;;5077575;28;19927;-89
2021/12/14 12:00:16;;;;;;;;;;;9.10;99.90;;;;;;5094573;28;19924;-90
2021/12/14 12:02:41;;;;;;;;;;;9.10;99.90;;;;;;5075618;28;19931;-89
2021/12/14 12:05:29;;;;;;;;;;;;;;;;;;;;;
2021/12/14 12:11:18;;;;;;;;;;;9.10;99.90;;;;;;5049310;28;19978;-90
2021/12/14 12:13:48;;;;;;;;;;;9.00;99.90;;;;;;5077102;28;20034;-87
2021/12/14 12:16:27;;;;;;;;;;;9.10;99.90;;;;;;5093588;28;20396;-87
2021/12/14 12:19:14;;;;;;;;;;;9.10;99.90;;;;;;5093743;28;20322;-88
2021/12/14 12:21:40;;;;;;;;;;;9.00;99.90;;;;;;5093103;28;19923;-87
2021/12/14 12:24:17;;;;;;;;;;;9.20;99.90;;;;;;5094310;28;20256;-88
2021/12/14 12:26:42;;;;;;;;;;;9.00;99.90;;;;;;5091107;28;20023;-87
2021/12/14 12:29:13;;;;;;;;;;;9.10;99.90;;;;;;5093686;28;20018;-87
2021/12/14 12:31:46;;;;;;;;;;;9.10;99.90;;;;;;5077193;28;19924;-87
2021/12/14 12:34:20;;;;;;;;;;;9.10;99.90;;;;;;5095532;28;19924;-87
2021/12/14 12:37:18;;;;;;;;;;;;;;;;;;;;;
2021/12/14 12:40:02;;;;;;;;;;;9.10;99.90;;;;;;5114644;27;19923;-88
2021/12/14 12:42:30;;;;;;;;;;;9.20;99.90;;;;;;5098441;27;19974;-88
2021/12/14 12:44:56;;;;;;;;;;;9.20;99.90;;;;;;5078804;28;20007;-89
2021/12/14 12:47:22;;;;;;;;;;;9.10;99.90;;;;;;5097490;28;20014;-89
2021/12/14 12:49:51;;;;;;;;;;;9.20;99.90;;;;;;5097454;28;20345;-90
2021/12/14 12:52:26;;;;;;;;;;;9.20;99.90;;;;;;5095649;28;19924;-89
2021/12/14 12:54:56;;;;;;;;;;;9.20;99.90;;;;;;5128054;27;19923;-90
2021/12/14 12:57:30;;;;;;;;;;;9.20;99.90;;;;;;5136646;27;20274;-88
2021/12/14 13:00:07;;;;;;;;;;;9.20;99.90;;;;;;5095031;28;19924;-87
2021/12/14 13:02:53;;;;;;;;;;;9.20;99.90;;;;;;5101227;27;19959;-88
2021/12/14 13:05:40;;;;;;;;;;;9.20;99.90;;;;;;5119790;27;19923;-88
2021/12/14 13:08:30;;;;;;;;;;;9.20;99.90;;;;;;5098889;28;19974;-90
2021/12/14 13:11:03;;;;;;;;;;;9.20;99.90;;;;;;5115235;28;19924;-90
2021/12/14 13:16:41;;;;;;;;;;;9.20;99.90;;;;;;5102716;28;19931;-90
2021/12/14 13:19:45;;;;;;;;;;;;;;;;;;;;;
2021/12/14 13:22:14;;;;;;;;;;;9.20;99.90;;;;;;5102351;28;19923;-92
2021/12/14 13:24:40;;;;;;;;;;;9.30;99.90;;;;;;5082335;28;19924;-92
2021/12/14 13:27:10;;;;;;;;;;;9.30;99.90;;;;;;5081619;28;20415;-93
2021/12/14 13:30:11;;;;;;;;;;;9.30;99.90;;;;;;5081897;28;20022;-92
2021/12/14 13:32:40;;;;;;;;;;;9.30;99.90;;;;;;5057319;28;19931;-91
2021/12/14 13:35:25;;;;;;;;;;;9.30;99.90;;;;;;5042134;28;20015;-88
2021/12/14 13:38:11;;;;;;;;;;;9.30;99.90;;;;;;5041872;28;19931;-89
2021/12/14 13:40:53;;;;;;;;;;;9.30;99.90;;;;;;5074574;28;19925;-88
2021/12/14 13:43:47;;;;;;;;;;;9.30;99.90;;;;;;5043758;28;19924;-87
2021/12/14 13:46:13;;;;;;;;;;;9.30;99.90;;;;;;5070668;28;20388;-85
2021/12/14 13:48:41;;;;;;;;;;;9.30;99.90;;;;;;5074013;28;19932;-85
2021/12/14 13:51:07;;;;;;;;;;;9.30;99.90;;;;;;5039612;28;19971;-85
2021/12/14 13:53:35;;;;;;;;;;;9.30;99.90;;;;;;5040305;28;19928;-86
2021/12/14 13:56:03;;;;;;;;;;;9.30;99.90;;;;;;5073700;28;20041;-86
2021/12/14 13:58:38;;;;;;;;;;;9.30;99.90;;;;;;5040661;28;19947;-87
2021/12/14 14:01:08;;;;;;;;;;;9.30;99.90;;;;;;5058231;28;19925;-85
2021/12/14 14:03:37;;;;;;;;;;;9.30;99.90;;;;;;5055520;28;19924;-86
2021/12/14 14:06:04;;;;;;;;;;;9.40;99.90;;;;;;5052866;28;19935;-86
2021/12/14 14:08:40;;;;;;;;;;;9.40;99.90;;;;;;5057677;28;20011;-88
2021/12/14 14:11:25;;;;;;;;;;;9.30;99.90;;;;;;5055741;28;19986;-87
2021/12/14 14:14:03;;;;;;;;;;;9.40;99.90;;;;;;5071764;28;19931;-87
2021/12/14 14:16:50;;;;;;;;;;;9.40;99.90;;;;;;5088113;28;20094;-87
2021/12/14 14:19:16;;;;;;;;;;;9.40;99.90;;;;;;5047877;28;19925;-87
2021/12/14 14:21:49;;;;;;;;;;;9.40;99.90;;;;;;5059741;28;20015;-87
2021/12/14 14:24:34;;;;;;;;;;;9.30;99.90;;;;;;5071708;28;19974;-87
2021/12/14 14:27:00;;;;;;;;;;;9.40;99.90;;;;;;5054963;28;19925;-87
2021/12/14 14:29:41;;;;;;;;;;;9.30;99.90;;;;;;5055282;28;20015;-86
2021/12/14 14:32:21;;;;;;;;;;;;;;;;;;;;;
2021/12/14 14:34:55;;;;;;;;;;;9.40;99.90;;;;;;5097695;28;20295;-86
2021/12/14 14:37:26;;;;;;;;;;;9.40;99.90;;;;;;5095529;28;19923;-87
2021/12/14 14:39:58;;;;;;;;;;;9.40;99.90;;;;;;5095861;28;20346;-87
2021/12/14 14:42:33;;;;;;;;;;;9.40;99.90;;;;;;5095741;28;19924;-87
2021/12/14 14:45:01;;;;;;;;;;;9.40;99.90;;;;;;5077559;28;19938;-87
2021/12/14 14:47:37;;;;;;;;;;;9.40;99.90;;;;;;5097752;28;20340;-87
2021/12/14 14:50:05;;;;;;;;;;;9.40;99.90;;;;;;5078182;28;20321;-88
2021/12/14 14:52:37;;;;;;;;;;;9.40;99.90;;;;;;5097188;28;19971;-85
2021/12/14 14:55:06;;;;;;;;;;;9.40;99.90;;;;;;5078548;28;20291;-85
2021/12/14 14:57:33;;;;;;;;;;;9.40;99.90;;;;;;5095101;28;19994;-85
2021/12/14 15:00:05;;;;;;;;;;;9.40;99.90;;;;;;5094610;28;20314;-85
2021/12/14 15:02:49;;;;;;;;;;;9.40;99.90;;;;;;5095007;28;20287;-85
2021/12/14 15:05:33;;;;;;;;;;;9.40;99.90;;;;;;5094550;28;19949;-85
2021/12/14 15:08:14;;;;;;;;;;;9.40;99.90;;;;;;5111483;28;19927;-86
2021/12/14 15:10:44;;;;;;;;;;;9.40;99.90;;;;;;5094551;28;19939;-85
2021/12/14 15:13:12;;;;;;;;;;;9.40;99.90;;;;;;5073712;28;20395;-85
2021/12/14 15:15:40;;;;;;;;;;;9.40;99.90;;;;;;5094752;28;20253;-85
2021/12/14 15:18:08;;;;;;;;;;;9.40;99.90;;;;;;5077359;28;19924;-86
2021/12/14 15:20:37;;;;;;;;;;;9.50;99.90;;;;;;5094073;28;19942;-85
2021/12/14 15:23:03;;;;;;;;;;;9.50;99.90;;;;;;5081631;28;19931;-87
2021/12/14 15:25:30;;;;;;;;;;;9.40;99.90;;;;;;5111199;28;19977;-85
2021/12/14 15:27:57;;;;;;;;;;;9.40;99.90;;;;;;5093719;28;19992;-85
2021/12/14 15:30:23;;;;;;;;;;;9.40;99.90;;;;;;5089255;28;19969;-85
2021/12/14 15:33:19;;;;;;;;;;;9.40;99.90;;;;;;5106788;28;20196;-85
2021/12/14 15:35:53;;;;;;;;;;;9.40;99.90;;;;;;5084472;28;20008;-85
2021/12/14 15:38:42;;;;;;;;;;;9.40;99.90;;;;;;5091842;28;19928;-85
2021/12/14 15:41:11;;;;;;;;;;;9.40;99.90;;;;;;5091944;28;19931;-84
2021/12/14 15:43:39;;;;;;;;;;;9.40;99.90;;;;;;5111030;28;19931;-83
2021/12/14 15:46:06;;;;;;;;;;;9.40;99.90;;;;;;5098931;28;20342;-83
2021/12/14 15:48:31;;;;;;;;;;;9.40;99.90;;;;;;5093252;28;20376;-83
2021/12/14 15:51:00;;;;;;;;;;;9.40;99.90;;;;;;5093682;28;19930;-83
2021/12/14 15:53:52;;;;;;;;;;;9.40;99.90;;;;;;5110383;28;19967;-84
2021/12/14 15:56:21;;;;;;;;;;;9.40;99.90;;;;;;5087937;28;19923;-84
2021/12/14 15:58:49;;;;;;;;;;;9.40;99.90;;;;;;5111096;28;19959;-84
2021/12/14 16:01:17;;;;;;;;;;;9.40;99.90;;;;;;5110287;28;19931;-84
2021/12/14 16:03:43;;;;;;;;;;;9.40;99.90;;;;;;5087753;28;19936;-85